sensor_id;sensor_type;location;lat;lon;timestamp;pressure;altitude;pressure_sealevel;temperature;humidity
19096;BME280;9680;52.520;13.332;2023-03-12T00:00:39;100757.41;;;0.37;75.61
19096;BME280;9680;52.520;13.332;2023-03-12T00:03:06;100749.69;;;0.35;75.68
19096;BME280;9680;52.520;13.332;2023-03-12T00:05:37;100753.13;;;0.34;75.98
19096;BME280;9680;52.520;13.332;2023-03-12T00:08:04;100745.41;;;0.33;75.73
19096;BME280;9680;52.520;13.332;2023-03-12T00:10:31;100750.53;;;0.33;75.72
19096;BME280;9680;52.520;13.332;2023-03-12T00:12:58;100751.41;;;0.35;75.49
19096;BME280;9680;52.520;13.332;2023-03-12T00:15:24;100745.41;;;0.33;75.73
19096;BME280;9680;52.520;13.332;2023-03-12T00:17:51;100743.72;;;0.33;75.59
19096;BME280;9680;52.520;13.332;2023-03-12T00:20:18;100744.56;;;0.32;75.57
19096;BME280;9680;52.520;13.332;2023-03-12T00:22:49;100739.41;;;0.31;75.63
19096;BME280;9680;52.520;13.332;2023-03-12T00:25:16;100746.25;;;0.32;75.81
19096;BME280;9680;52.520;13.332;2023-03-12T00:27:43;100747.97;;;0.31;75.69
19096;BME280;9680;52.520;13.332;2023-03-12T00:30:10;100751.38;;;0.32;75.77
19096;BME280;9680;52.520;13.332;2023-03-12T00:32:37;100750.50;;;0.29;75.66
19096;BME280;9680;52.520;13.332;2023-03-12T00:35:05;100749.69;;;0.32;75.66
19096;BME280;9680;52.520;13.332;2023-03-12T00:37:32;100747.97;;;0.31;75.59
19096;BME280;9680;52.520;13.332;2023-03-12T00:40:00;100752.25;;;0.32;75.57
19096;BME280;9680;52.520;13.332;2023-03-12T00:42:30;100753.09;;;0.33;75.83
19096;BME280;9680;52.520;13.332;2023-03-12T00:44:57;100755.72;;;0.39;75.94
19096;BME280;9680;52.520;13.332;2023-03-12T00:47:24;100763.44;;;0.45;75.34
19096;BME280;9680;52.520;13.332;2023-03-12T00:49:51;100764.28;;;0.50;75.14
19096;BME280;9680;52.520;13.332;2023-03-12T00:52:18;100772.03;;;0.63;75.06
19096;BME280;9680;52.520;13.332;2023-03-12T00:54:44;100772.06;;;0.78;74.46
19096;BME280;9680;52.520;13.332;2023-03-12T00:57:13;100770.41;;;0.94;73.86
19096;BME280;9680;52.520;13.332;2023-03-12T00:59:39;100767.88;;;1.05;72.99
19096;BME280;9680;52.520;13.332;2023-03-12T01:02:08;100775.56;;;1.16;72.99
19096;BME280;9680;52.520;13.332;2023-03-12T01:04:35;100772.16;;;1.26;72.69
19096;BME280;9680;52.520;13.332;2023-03-12T01:07:01;100778.19;;;1.33;72.23
19096;BME280;9680;52.520;13.332;2023-03-12T01:09:28;100776.47;;;1.41;71.75
19096;BME280;9680;52.520;13.332;2023-03-12T01:11:55;100781.59;;;1.44;71.72
19096;BME280;9680;52.520;13.332;2023-03-12T01:14:23;100781.63;;;1.49;71.39
19096;BME280;9680;52.520;13.332;2023-03-12T01:16:50;100783.31;;;1.45;70.33
19096;BME280;9680;52.520;13.332;2023-03-12T01:19:16;100783.31;;;1.49;70.45
19096;BME280;9680;52.520;13.332;2023-03-12T01:21:43;100779.03;;;1.51;70.45
19096;BME280;9680;52.520;13.332;2023-03-12T01:24:10;100781.59;;;1.51;70.16
19096;BME280;9680;52.520;13.332;2023-03-12T01:26:37;100778.19;;;1.52;70.50
19096;BME280;9680;52.520;13.332;2023-03-12T01:29:04;100772.19;;;1.42;69.98
19096;BME280;9680;52.520;13.332;2023-03-12T01:31:32;100774.75;;;1.22;70.07
19096;BME280;9680;52.520;13.332;2023-03-12T01:33:59;100780.69;;;1.07;70.64
19096;BME280;9680;52.520;13.332;2023-03-12T01:36:27;100787.50;;;0.97;70.81
19096;BME280;9680;52.520;13.332;2023-03-12T01:38:58;100791.78;;;0.93;71.69
19096;BME280;9680;52.520;13.332;2023-03-12T01:41:27;100784.97;;;1.03;72.13
19096;BME280;9680;52.520;13.332;2023-03-12T01:43:54;100794.41;;;1.20;72.15
19096;BME280;9680;52.520;13.332;2023-03-12T01:46:24;100796.97;;;1.30;71.96
19096;BME280;9680;52.520;13.332;2023-03-12T01:48:57;100805.56;;;1.37;71.25
19096;BME280;9680;52.520;13.332;2023-03-12T01:51:26;100796.16;;;1.44;70.95
19096;BME280;9680;52.520;13.332;2023-03-12T01:53:58;100791.88;;;1.44;70.88
19096;BME280;9680;52.520;13.332;2023-03-12T01:56:27;100803.88;;;1.50;70.47
19096;BME280;9680;52.520;13.332;2023-03-12T01:59:00;100799.59;;;1.49;70.59
19096;BME280;9680;52.520;13.332;2023-03-12T02:01:29;100809.84;;;1.51;70.49
19096;BME280;9680;52.520;13.332;2023-03-12T02:03:58;100809.00;;;1.55;70.97
19096;BME280;9680;52.520;13.332;2023-03-12T02:06:32;100809.88;;;1.58;70.63
19096;BME280;9680;52.520;13.332;2023-03-12T02:09:01;100823.56;;;1.57;70.42
19096;BME280;9680;52.520;13.332;2023-03-12T02:11:30;100816.72;;;1.56;70.31
19096;BME280;9680;52.520;13.332;2023-03-12T02:13:57;100822.69;;;1.60;70.61
19096;BME280;9680;52.520;13.332;2023-03-12T02:16:25;100828.69;;;1.59;69.92
19096;BME280;9680;52.520;13.332;2023-03-12T02:18:53;100822.69;;;1.49;69.71
19096;BME280;9680;52.520;13.332;2023-03-12T02:21:24;100825.25;;;1.38;69.80
19096;BME280;9680;52.520;13.332;2023-03-12T02:23:59;100820.97;;;1.36;70.20
19096;BME280;9680;52.520;13.332;2023-03-12T02:26:32;100824.38;;;1.33;70.59
19096;BME280;9680;52.520;13.332;2023-03-12T02:29:01;100832.09;;;1.35;70.60
19096;BME280;9680;52.520;13.332;2023-03-12T02:31:32;100827.78;;;1.26;70.49
19096;BME280;9680;52.520;13.332;2023-03-12T02:34:00;100832.03;;;1.13;70.57
19096;BME280;9680;52.520;13.332;2023-03-12T02:36:27;100835.41;;;0.98;70.71
19096;BME280;9680;52.520;13.332;2023-03-12T02:38:55;100836.22;;;0.84;71.24
19096;BME280;9680;52.520;13.332;2023-03-12T02:41:23;100853.28;;;0.73;71.74
19096;BME280;9680;52.520;13.332;2023-03-12T02:43:58;100851.50;;;0.61;72.17
19096;BME280;9680;52.520;13.332;2023-03-12T02:46:26;100854.06;;;0.56;72.49
19096;BME280;9680;52.520;13.332;2023-03-12T02:48:55;100852.31;;;0.49;72.71
19096;BME280;9680;52.520;13.332;2023-03-12T02:51:22;100854.00;;;0.44;73.11
19096;BME280;9680;52.520;13.332;2023-03-12T02:53:49;100855.66;;;0.37;73.22
19096;BME280;9680;52.520;13.332;2023-03-12T02:56:20;100858.19;;;0.34;73.53
19096;BME280;9680;52.520;13.332;2023-03-12T02:58:47;100855.59;;;0.29;73.72
19096;BME280;9680;52.520;13.332;2023-03-12T03:01:16;100859.84;;;0.26;74.16
19096;BME280;9680;52.520;13.332;2023-03-12T03:03:43;100863.25;;;0.23;74.09
19096;BME280;9680;52.520;13.332;2023-03-12T03:06:10;100867.50;;;0.20;74.49
19096;BME280;9680;52.520;13.332;2023-03-12T03:08:37;100866.63;;;0.19;74.68
19096;BME280;9680;52.520;13.332;2023-03-12T03:11:05;100861.47;;;0.16;74.70
19096;BME280;9680;52.520;13.332;2023-03-12T03:13:32;100870.03;;;0.13;75.00
19096;BME280;9680;52.520;13.332;2023-03-12T03:16:00;100864.00;;;0.10;75.03
19096;BME280;9680;52.520;13.332;2023-03-12T03:18:30;100868.25;;;0.05;75.30
19096;BME280;9680;52.520;13.332;2023-03-12T03:20:59;100874.22;;;0.02;75.59
19096;BME280;9680;52.520;13.332;2023-03-12T03:23:28;100880.16;;;-0.01;75.56
19096;BME280;9680;52.520;13.332;2023-03-12T03:25:55;100875.84;;;-0.03;75.76
19096;BME280;9680;52.520;13.332;2023-03-12T03:28:23;100880.94;;;-0.06;76.33
19096;BME280;9680;52.520;13.332;2023-03-12T03:30:52;100891.22;;;-0.05;76.18
19096;BME280;9680;52.520;13.332;2023-03-12T03:33:19;100891.19;;;-0.08;76.34
19096;BME280;9680;52.520;13.332;2023-03-12T03:35:48;100888.59;;;-0.09;76.27
19096;BME280;9680;52.520;13.332;2023-03-12T03:38:16;100896.31;;;-0.08;76.38
19096;BME280;9680;52.520;13.332;2023-03-12T03:40:43;100887.78;;;-0.10;76.51
19096;BME280;9680;52.520;13.332;2023-03-12T03:43:10;100894.56;;;-0.10;76.70
19096;BME280;9680;52.520;13.332;2023-03-12T03:45:37;100892.88;;;-0.11;76.92
19096;BME280;9680;52.520;13.332;2023-03-12T03:48:05;100889.44;;;-0.13;76.98
19096;BME280;9680;52.520;13.332;2023-03-12T03:50:32;100894.56;;;-0.15;77.00
19096;BME280;9680;52.520;13.332;2023-03-12T03:53:01;100897.97;;;-0.16;77.11
19096;BME280;9680;52.520;13.332;2023-03-12T03:55:28;100894.50;;;-0.20;77.20
19096;BME280;9680;52.520;13.332;2023-03-12T03:57:55;100897.06;;;-0.21;77.46
19096;BME280;9680;52.520;13.332;2023-03-12T04:00:22;100899.59;;;-0.23;77.19
19096;BME280;9680;52.520;13.332;2023-03-12T04:02:51;100911.56;;;-0.23;77.57
19096;BME280;9680;52.520;13.332;2023-03-12T04:05:20;100909.81;;;-0.26;77.76
19096;BME280;9680;52.520;13.332;2023-03-12T04:07:48;100920.06;;;-0.27;77.82
19096;BME280;9680;52.520;13.332;2023-03-12T04:10:23;100923.50;;;-0.25;77.50
19096;BME280;9680;52.520;13.332;2023-03-12T04:12:50;100912.34;;;-0.29;78.15
19096;BME280;9680;52.520;13.332;2023-03-12T04:15:18;100926.03;;;-0.28;78.11
19096;BME280;9680;52.520;13.332;2023-03-12T04:17:47;100921.75;;;-0.28;78.31
19096;BME280;9680;52.520;13.332;2023-03-12T04:20:14;100924.31;;;-0.30;78.34
19096;BME280;9680;52.520;13.332;2023-03-12T04:22:41;100924.28;;;-0.33;78.51
19096;BME280;9680;52.520;13.332;2023-03-12T04:25:09;100934.53;;;-0.33;78.71
19096;BME280;9680;52.520;13.332;2023-03-12T04:27:38;100927.66;;;-0.35;78.71
19096;BME280;9680;52.520;13.332;2023-03-12T04:30:05;100931.91;;;-0.36;78.58
19096;BME280;9680;52.520;13.332;2023-03-12T04:32:34;100927.63;;;-0.38;79.02
19096;BME280;9680;52.520;13.332;2023-03-12T04:35:01;100931.91;;;-0.37;79.11
19096;BME280;9680;52.520;13.332;2023-03-12T04:37:31;100935.28;;;-0.40;79.44
19096;BME280;9680;52.520;13.332;2023-03-12T04:39:59;100936.09;;;-0.41;79.74
19096;BME280;9680;52.520;13.332;2023-03-12T04:42:27;100930.97;;;-0.44;79.70
19096;BME280;9680;52.520;13.332;2023-03-12T04:44:56;100938.63;;;-0.44;79.85
19096;BME280;9680;52.520;13.332;2023-03-12T04:47:22;100939.47;;;-0.45;79.93
19096;BME280;9680;52.520;13.332;2023-03-12T04:49:50;100946.28;;;-0.47;80.49
19096;BME280;9680;52.520;13.332;2023-03-12T04:52:16;100932.63;;;-0.49;80.55
19096;BME280;9680;52.520;13.332;2023-03-12T04:54:43;100937.75;;;-0.48;80.52
19096;BME280;9680;52.520;13.332;2023-03-12T04:57:10;100943.69;;;-0.50;80.55
19096;BME280;9680;52.520;13.332;2023-03-12T04:59:37;100939.41;;;-0.51;80.49
19096;BME280;9680;52.520;13.332;2023-03-12T05:02:05;100943.66;;;-0.53;80.81
19096;BME280;9680;52.520;13.332;2023-03-12T05:04:32;100953.91;;;-0.53;80.92
19096;BME280;9680;52.520;13.332;2023-03-12T05:07:00;100944.50;;;-0.54;81.04
19096;BME280;9680;52.520;13.332;2023-03-12T05:09:27;100955.63;;;-0.54;81.19
19096;BME280;9680;52.520;13.332;2023-03-12T05:11:54;100957.31;;;-0.54;81.48
19096;BME280;9680;52.520;13.332;2023-03-12T05:14:21;100956.50;;;-0.52;81.29
19096;BME280;9680;52.520;13.332;2023-03-12T05:16:48;100959.03;;;-0.53;81.32
19096;BME280;9680;52.520;13.332;2023-03-12T05:19:17;100955.59;;;-0.57;81.27
19096;BME280;9680;52.520;13.332;2023-03-12T05:21:44;100956.44;;;-0.58;81.27
19096;BME280;9680;52.520;13.332;2023-03-12T05:24:11;100962.38;;;-0.59;81.54
19096;BME280;9680;52.520;13.332;2023-03-12T05:26:38;100958.97;;;-0.56;81.51
19096;BME280;9680;52.520;13.332;2023-03-12T05:29:11;100954.72;;;-0.57;81.41
19096;BME280;9680;52.520;13.332;2023-03-12T05:31:38;100957.28;;;-0.59;81.42
19096;BME280;9680;52.520;13.332;2023-03-12T05:34:07;100947.88;;;-0.59;81.65
19096;BME280;9680;52.520;13.332;2023-03-12T05:36:39;100950.47;;;-0.57;81.68
19096;BME280;9680;52.520;13.332;2023-03-12T05:39:06;100945.34;;;-0.57;81.62
19096;BME280;9680;52.520;13.332;2023-03-12T05:41:34;100956.44;;;-0.56;81.65
19096;BME280;9680;52.520;13.332;2023-03-12T05:44:10;100951.34;;;-0.55;81.60
19096;BME280;9680;52.520;13.332;2023-03-12T05:46:38;100954.75;;;-0.54;81.68
19096;BME280;9680;52.520;13.332;2023-03-12T05:49:05;100953.03;;;-0.57;81.58
19096;BME280;9680;52.520;13.332;2023-03-12T05:51:34;100960.69;;;-0.55;81.73
19096;BME280;9680;52.520;13.332;2023-03-12T05:54:02;100956.47;;;-0.53;81.74
19096;BME280;9680;52.520;13.332;2023-03-12T05:56:29;100956.50;;;-0.52;81.78
19096;BME280;9680;52.520;13.332;2023-03-12T05:58:56;100955.66;;;-0.51;81.75
19096;BME280;9680;52.520;13.332;2023-03-12T06:01:25;100959.09;;;-0.49;81.40
19096;BME280;9680;52.520;13.332;2023-03-12T06:03:55;100966.75;;;-0.49;81.77
19096;BME280;9680;52.520;13.332;2023-03-12T06:06:23;100973.59;;;-0.46;81.59
19096;BME280;9680;52.520;13.332;2023-03-12T06:08:51;100964.25;;;-0.44;81.67
19096;BME280;9680;52.520;13.332;2023-03-12T06:11:19;100960.88;;;-0.41;81.77
19096;BME280;9680;52.520;13.332;2023-03-12T06:13:46;100966.88;;;-0.39;81.26
19096;BME280;9680;52.520;13.332;2023-03-12T06:16:16;100966.06;;;-0.35;81.64
19096;BME280;9680;52.520;13.332;2023-03-12T06:18:44;100964.38;;;-0.33;81.45
19096;BME280;9680;52.520;13.332;2023-03-12T06:21:13;100962.69;;;-0.31;81.71
19096;BME280;9680;52.520;13.332;2023-03-12T06:23:41;100963.59;;;-0.27;81.43
19096;BME280;9680;52.520;13.332;2023-03-12T06:26:12;100970.44;;;-0.23;81.56
19096;BME280;9680;52.520;13.332;2023-03-12T06:28:41;100960.22;;;-0.22;81.30
19096;BME280;9680;52.520;13.332;2023-03-12T06:31:08;100961.13;;;-0.18;81.29
19096;BME280;9680;52.520;13.332;2023-03-12T06:33:35;100961.97;;;-0.15;81.26
19096;BME280;9680;52.520;13.332;2023-03-12T06:36:03;100968.00;;;-0.11;81.18
19096;BME280;9680;52.520;13.332;2023-03-12T06:38:31;100970.63;;;-0.05;81.09
19096;BME280;9680;52.520;13.332;2023-03-12T06:40:59;100973.22;;;-0.02;81.13
19096;BME280;9680;52.520;13.332;2023-03-12T06:43:28;100983.56;;;0.06;81.06
19096;BME280;9680;52.520;13.332;2023-03-12T06:45:57;100982.75;;;0.13;81.01
19096;BME280;9680;52.520;13.332;2023-03-12T06:48:26;100979.41;;;0.22;81.06
19096;BME280;9680;52.520;13.332;2023-03-12T06:50:54;100983.75;;;0.33;80.91
19096;BME280;9680;52.520;13.332;2023-03-12T06:53:21;100976.13;;;0.37;80.46
19096;BME280;9680;52.520;13.332;2023-03-12T06:55:50;100985.59;;;0.46;80.30
19096;BME280;9680;52.520;13.332;2023-03-12T06:58:18;100978.81;;;0.54;80.22
19096;BME280;9680;52.520;13.332;2023-03-12T07:00:44;100974.59;;;0.64;79.88
19096;BME280;9680;52.520;13.332;2023-03-12T07:03:13;100980.66;;;0.74;79.94
19096;BME280;9680;52.520;13.332;2023-03-12T07:05:43;100977.31;;;0.87;79.62
19096;BME280;9680;52.520;13.332;2023-03-12T07:08:10;100980.84;;;1.07;79.58
19096;BME280;9680;52.520;13.332;2023-03-12T07:10:37;100979.22;;;1.27;79.41
19096;BME280;9680;52.520;13.332;2023-03-12T07:13:04;100979.31;;;1.46;78.83
19096;BME280;9680;52.520;13.332;2023-03-12T07:15:30;100975.94;;;1.59;77.97
19096;BME280;9680;52.520;13.332;2023-03-12T07:17:59;100976.78;;;1.62;76.75
19096;BME280;9680;52.520;13.332;2023-03-12T07:20:27;100975.97;;;1.72;76.61
19096;BME280;9680;52.520;13.332;2023-03-12T07:22:54;100980.25;;;1.82;76.58
19096;BME280;9680;52.520;13.332;2023-03-12T07:25:20;100982.00;;;1.97;76.24
19096;BME280;9680;52.520;13.332;2023-03-12T07:27:47;100977.75;;;2.12;75.92
19096;BME280;9680;52.520;13.332;2023-03-12T07:30:14;100982.91;;;2.26;75.47
19096;BME280;9680;52.520;13.332;2023-03-12T07:32:41;100985.47;;;2.24;74.73
19096;BME280;9680;52.520;13.332;2023-03-12T07:35:08;100982.88;;;2.18;74.20
19096;BME280;9680;52.520;13.332;2023-03-12T07:37:37;101000.88;;;2.10;73.84
19096;BME280;9680;52.520;13.332;2023-03-12T07:40:04;101000.03;;;2.02;74.15
19096;BME280;9680;52.520;13.332;2023-03-12T07:42:32;101001.72;;;2.00;74.25
19096;BME280;9680;52.520;13.332;2023-03-12T07:44:59;100999.13;;;1.97;74.00
19096;BME280;9680;52.520;13.332;2023-03-12T07:47:26;101003.41;;;1.98;74.19
19096;BME280;9680;52.520;13.332;2023-03-12T07:49:52;100997.44;;;2.00;74.29
19096;BME280;9680;52.520;13.332;2023-03-12T07:52:19;100993.16;;;2.09;74.34
19096;BME280;9680;52.520;13.332;2023-03-12T07:54:49;100997.44;;;2.13;73.94
19096;BME280;9680;52.520;13.332;2023-03-12T07:57:17;100997.44;;;2.19;73.72
19096;BME280;9680;52.520;13.332;2023-03-12T07:59:43;101000.91;;;2.29;73.87
19096;BME280;9680;52.520;13.332;2023-03-12T08:02:11;101000.03;;;2.42;73.86
19096;BME280;9680;52.520;13.332;2023-03-12T08:04:38;101006.06;;;2.66;74.18
19096;BME280;9680;52.520;13.332;2023-03-12T08:07:04;100999.13;;;2.91;73.63
19096;BME280;9680;52.520;13.332;2023-03-12T08:09:31;100999.97;;;3.08;72.73
19096;BME280;9680;52.520;13.332;2023-03-12T08:12:00;101012.81;;;3.15;72.17
19096;BME280;9680;52.520;13.332;2023-03-12T08:14:27;101011.94;;;3.19;71.88
19096;BME280;9680;52.520;13.332;2023-03-12T08:16:56;101007.66;;;3.18;71.08
19096;BME280;9680;52.520;13.332;2023-03-12T08:19:23;101013.69;;;3.14;71.16
19096;BME280;9680;52.520;13.332;2023-03-12T08:21:50;101006.81;;;3.15;71.05
19096;BME280;9680;52.520;13.332;2023-03-12T08:24:18;101008.50;;;3.22;71.19
19096;BME280;9680;52.520;13.332;2023-03-12T08:26:45;101008.47;;;3.33;71.15
19096;BME280;9680;52.520;13.332;2023-03-12T08:29:14;101005.03;;;3.39;70.95
19096;BME280;9680;52.520;13.332;2023-03-12T08:31:41;101017.00;;;3.49;70.82
19096;BME280;9680;52.520;13.332;2023-03-12T08:34:08;101012.63;;;3.68;70.54
19096;BME280;9680;52.520;13.332;2023-03-12T08:36:35;101012.50;;;3.88;70.57
19096;BME280;9680;52.520;13.332;2023-03-12T08:39:02;101008.91;;;4.17;70.29
19096;BME280;9680;52.520;13.332;2023-03-12T08:41:29;101004.38;;;4.46;69.30
19096;BME280;9680;52.520;13.332;2023-03-12T08:43:56;101009.38;;;4.66;68.27
19096;BME280;9680;52.520;13.332;2023-03-12T08:46:24;100999.75;;;4.84;67.52
19096;BME280;9680;52.520;13.332;2023-03-12T08:48:51;100995.25;;;5.01;66.82
19096;BME280;9680;52.520;13.332;2023-03-12T08:51:18;100992.47;;;5.20;66.41
19096;BME280;9680;52.520;13.332;2023-03-12T08:53:44;100995.75;;;5.33;65.78
19096;BME280;9680;52.520;13.332;2023-03-12T08:56:11;100993.91;;;5.44;65.32
19096;BME280;9680;52.520;13.332;2023-03-12T08:58:38;100987.81;;;5.50;64.69
19096;BME280;9680;52.520;13.332;2023-03-12T09:01:07;100995.63;;;5.44;64.08
19096;BME280;9680;52.520;13.332;2023-03-12T09:03:36;100988.00;;;5.33;64.07
19096;BME280;9680;52.520;13.332;2023-03-12T09:06:05;100996.72;;;5.25;64.01
19096;BME280;9680;52.520;13.332;2023-03-12T09:08:34;100989.91;;;5.17;63.89
19096;BME280;9680;52.520;13.332;2023-03-12T09:11:00;100994.25;;;5.16;64.03
19096;BME280;9680;52.520;13.332;2023-03-12T09:13:28;100998.47;;;5.22;64.00
19096;BME280;9680;52.520;13.332;2023-03-12T09:15:58;100999.38;;;5.18;62.77
19096;BME280;9680;52.520;13.332;2023-03-12T09:18:25;100988.16;;;5.19;63.08
19096;BME280;9680;52.520;13.332;2023-03-12T09:21:08;100987.88;;;5.44;63.43
19096;BME280;9680;52.520;13.332;2023-03-12T09:23:35;100981.59;;;5.62;62.78
19096;BME280;9680;52.520;13.332;2023-03-12T09:26:24;100981.31;;;5.83;62.43
19096;BME280;9680;52.520;13.332;2023-03-12T09:28:52;100981.91;;;6.04;62.04
19096;BME280;9680;52.520;13.332;2023-03-12T09:31:19;100979.84;;;6.26;61.55
19096;BME280;9680;52.520;13.332;2023-03-12T09:33:46;100977.88;;;6.43;61.13
19096;BME280;9680;52.520;13.332;2023-03-12T09:36:14;100981.25;;;6.46;60.17
19096;BME280;9680;52.520;13.332;2023-03-12T09:38:40;100976.09;;;6.45;59.92
19096;BME280;9680;52.520;13.332;2023-03-12T09:41:16;100975.06;;;6.53;60.09
19096;BME280;9680;52.520;13.332;2023-03-12T09:43:48;100973.91;;;6.72;59.67
19096;BME280;9680;52.520;13.332;2023-03-12T09:46:21;100973.56;;;6.90;59.42
19096;BME280;9680;52.520;13.332;2023-03-12T09:48:50;100969.00;;;7.03;58.86
19096;BME280;9680;52.520;13.332;2023-03-12T09:51:23;100970.84;;;6.98;58.00
19096;BME280;9680;52.520;13.332;2023-03-12T09:53:55;100969.00;;;7.05;58.09
19096;BME280;9680;52.520;13.332;2023-03-12T09:56:25;100968.75;;;7.17;58.14
19096;BME280;9680;52.520;13.332;2023-03-12T09:58:53;100968.97;;;7.47;57.41
19096;BME280;9680;52.520;13.332;2023-03-12T10:01:37;100958.94;;;7.72;56.70
19096;BME280;9680;52.520;13.332;2023-03-12T10:04:37;100955.81;;;7.94;56.00
19096;BME280;9680;52.520;13.332;2023-03-12T10:07:11;100946.88;;;8.08;55.01
19096;BME280;9680;52.520;13.332;2023-03-12T10:10:04;100943.09;;;8.21;54.47
19096;BME280;9680;52.520;13.332;2023-03-12T10:12:45;100954.44;;;8.17;53.39
19096;BME280;9680;52.520;13.332;2023-03-12T10:15:23;100947.66;;;8.46;54.57
19096;BME280;9680;52.520;13.332;2023-03-12T10:18:03;100940.00;;;8.76;53.61
19096;BME280;9680;52.520;13.332;2023-03-12T10:20:59;100937.00;;;8.90;53.17
19096;BME280;9680;52.520;13.332;2023-03-12T10:23:38;100937.75;;;8.95;52.44
19096;BME280;9680;52.520;13.332;2023-03-12T10:26:11;100934.97;;;9.01;52.50
19096;BME280;9680;52.520;13.332;2023-03-12T10:28:42;100918.06;;;9.16;52.42
19096;BME280;9680;52.520;13.332;2023-03-12T10:31:14;100923.78;;;8.99;51.94
19096;BME280;9680;52.520;13.332;2023-03-12T10:33:48;100917.25;;;8.84;52.33
19096;BME280;9680;52.520;13.332;2023-03-12T10:36:18;100912.81;;;8.88;52.47
19096;BME280;9680;52.520;13.332;2023-03-12T10:38:47;100918.50;;;9.02;52.30
19096;BME280;9680;52.520;13.332;2023-03-12T10:41:18;100921.22;;;8.98;50.99
19096;BME280;9680;52.520;13.332;2023-03-12T10:43:46;100917.09;;;8.91;51.47
19096;BME280;9680;52.520;13.332;2023-03-12T10:46:44;100916.91;;;8.97;51.14
19096;BME280;9680;52.520;13.332;2023-03-12T10:49:25;100903.91;;;9.27;51.19
19096;BME280;9680;52.520;13.332;2023-03-12T10:51:55;100904.88;;;9.23;50.31
19096;BME280;9680;52.520;13.332;2023-03-12T10:54:28;100895.75;;;9.39;50.42
19096;BME280;9680;52.520;13.332;2023-03-12T10:56:55;100898.81;;;9.52;50.15
19096;BME280;9680;52.520;13.332;2023-03-12T10:59:27;100887.97;;;9.66;49.70
19096;BME280;9680;52.520;13.332;2023-03-12T11:01:58;100885.25;;;9.98;50.07
19096;BME280;9680;52.520;13.332;2023-03-12T11:04:27;100883.91;;;10.11;49.41
19096;BME280;9680;52.520;13.332;2023-03-12T11:10:14;100873.13;;;9.97;47.32
19096;BME280;9680;52.520;13.332;2023-03-12T11:12:57;100872.03;;;9.77;47.53
19096;BME280;9680;52.520;13.332;2023-03-12T11:15:27;100874.03;;;9.69;47.75
19096;BME280;9680;52.520;13.332;2023-03-12T11:18:19;100872.72;;;9.55;47.98
19096;BME280;9680;52.520;13.332;2023-03-12T11:20:47;100866.09;;;9.45;48.26
19096;BME280;9680;52.520;13.332;2023-03-12T11:23:16;100871.69;;;9.32;48.60
19096;BME280;9680;52.520;13.332;2023-03-12T11:25:52;100858.16;;;9.50;48.86
19096;BME280;9680;52.520;13.332;2023-03-12T11:28:23;100853.97;;;9.72;48.40
19096;BME280;9680;52.520;13.332;2023-03-12T11:30:52;100858.75;;;9.85;47.88
19096;BME280;9680;52.520;13.332;2023-03-12T11:33:22;100857.72;;;9.90;47.66
19096;BME280;9680;52.520;13.332;2023-03-12T11:35:59;100853.75;;;9.79;47.28
19096;BME280;9680;52.520;13.332;2023-03-12T11:38:33;100846.06;;;9.75;47.31
19096;BME280;9680;52.520;13.332;2023-03-12T11:41:13;100849.00;;;9.91;47.05
19096;BME280;9680;52.520;13.332;2023-03-12T11:47:05;100845.25;;;10.00;46.32
19096;BME280;9680;52.520;13.332;2023-03-12T11:49:49;100843.53;;;9.74;44.77
19096;BME280;9680;52.520;13.332;2023-03-12T11:52:26;100829.41;;;9.54;43.49
19096;BME280;9680;52.520;13.332;2023-03-12T11:55:05;100838.03;;;9.28;43.86
19096;BME280;9680;52.520;13.332;2023-03-12T11:57:45;100841.00;;;9.44;44.22
19096;BME280;9680;52.520;13.332;2023-03-12T12:00:15;100838.53;;;9.68;44.83
19096;BME280;9680;52.520;13.332;2023-03-12T12:02:58;100846.44;;;9.90;44.87
19096;BME280;9680;52.520;13.332;2023-03-12T12:05:36;100830.06;;;10.13;44.81
19096;BME280;9680;52.520;13.332;2023-03-12T12:08:16;100819.28;;;10.24;44.69
19096;BME280;9680;52.520;13.332;2023-03-12T12:10:55;100808.06;;;10.22;44.14
19096;BME280;9680;52.520;13.332;2023-03-12T12:13:31;100792.56;;;10.19;43.96
19096;BME280;9680;52.520;13.332;2023-03-12T12:16:14;100794.03;;;10.01;43.74
19096;BME280;9680;52.520;13.332;2023-03-12T12:18:54;100784.50;;;10.01;43.42
19096;BME280;9680;52.520;13.332;2023-03-12T12:21:48;100781.78;;;10.04;43.66
19096;BME280;9680;52.520;13.332;2023-03-12T12:24:30;100789.09;;;10.18;43.24
19096;BME280;9680;52.520;13.332;2023-03-12T12:27:32;100775.38;;;10.13;42.07
19096;BME280;9680;52.520;13.332;2023-03-12T12:30:17;100764.72;;;10.21;41.74
19096;BME280;9680;52.520;13.332;2023-03-12T12:33:08;100749.09;;;10.21;41.63
19096;BME280;9680;52.520;13.332;2023-03-12T12:35:44;100752.38;;;10.26;41.56
19096;BME280;9680;52.520;13.332;2023-03-12T12:38:34;100745.69;;;10.19;41.16
19096;BME280;9680;52.520;13.332;2023-03-12T12:41:17;100726.94;;;10.09;40.51
19096;BME280;9680;52.520;13.332;2023-03-12T12:43:52;100738.03;;;10.14;40.67
19096;BME280;9680;52.520;13.332;2023-03-12T12:46:34;100736.47;;;10.10;40.01
19096;BME280;9680;52.520;13.332;2023-03-12T12:49:23;100729.44;;;10.12;38.75
19096;BME280;9680;52.520;13.332;2023-03-12T12:52:03;100731.94;;;10.15;38.16
19096;BME280;9680;52.520;13.332;2023-03-12T12:54:35;100718.81;;;10.18;38.51
19096;BME280;9680;52.520;13.332;2023-03-12T12:57:23;100715.59;;;10.12;37.16
19096;BME280;9680;52.520;13.332;2023-03-12T13:00:17;100718.69;;;9.98;37.65
19096;BME280;9680;52.520;13.332;2023-03-12T13:02:54;100734.06;;;10.04;38.05
19096;BME280;9680;52.520;13.332;2023-03-12T13:05:28;100725.44;;;10.03;37.17
19096;BME280;9680;52.520;13.332;2023-03-12T13:08:34;100712.00;;;9.90;37.40
19096;BME280;9680;52.520;13.332;2023-03-12T13:11:23;100698.06;;;9.68;37.13
19096;BME280;9680;52.520;13.332;2023-03-12T13:14:17;100705.53;;;9.52;37.36
19096;BME280;9680;52.520;13.332;2023-03-12T13:17:06;100702.81;;;9.29;37.84
19096;BME280;9680;52.520;13.332;2023-03-12T13:19:41;100708.78;;;9.31;38.48
19096;BME280;9680;52.520;13.332;2023-03-12T13:22:23;100700.97;;;9.33;38.32